KLEW/LEW METAR and TAF weather

Enter ICAO airport designator
Station Type Date Time Source
KLEW METAR 2020/03/28 12:56 UTC NOAA

KLEW 281256Z AUTO 34007KT 10SM CLR 04/M07 A3015 RMK AO2 SLP217 T00441072


Station Type Date Time Source
KLEW Decoded METAR 2020/03/28 12:56 UTC NOAA

Auburn-Lewiston, ME, United States (KLEW) 44-03N 070-17W
Mar 28, 2020 - 08:56 AM EDT / 2020.03.28 1256 UTC
Wind: from the NNW (340 degrees) at 8 MPH (7 KT):0
Visibility: 10 mile(s):0
Sky conditions: clear
Temperature: 39.9 F (4.4 C)
Dew Point: 19.0 F (-7.2 C)
Relative Humidity: 42%
Pressure (altimeter): 30.15 in. Hg (1020 hPa)
ob: KLEW 281256Z AUTO 34007KT 10SM CLR 04/M07 A3015 RMK AO2 SLP217 T00441072
cycle: 13

Station Type Date Time Source
KLEW TAF UTC NOAA

Error!

Example: see airport list